createdAt,value
2019-05-12T00:01:29.122Z,97617.00
2019-05-12T00:04:00.252Z,97619.00
2019-05-12T00:06:31.530Z,97615.00
2019-05-12T00:09:03.447Z,97614.00
2019-05-12T00:11:34.938Z,97617.00
2019-05-12T00:14:08.463Z,97614.00
2019-05-12T00:16:38.935Z,97605.00
2019-05-12T00:19:10.614Z,97608.00
2019-05-12T00:21:41.786Z,97608.00
2019-05-12T00:24:13.521Z,97612.00
2019-05-12T00:26:44.890Z,97609.00
2019-05-12T00:29:18.219Z,97614.00
2019-05-12T00:31:49.071Z,97618.00
2019-05-12T00:34:20.224Z,97619.00
2019-05-12T00:36:51.758Z,97628.00
2019-05-12T00:39:23.066Z,97617.00
2019-05-12T00:41:52.823Z,97620.00
2019-05-12T00:44:28.429Z,97626.00
2019-05-12T00:47:00.159Z,97628.00
2019-05-12T00:49:32.711Z,97636.00
2019-05-12T00:52:03.949Z,97627.00
2019-05-12T00:54:37.460Z,97631.00
2019-05-12T00:57:08.393Z,97628.00
2019-05-12T00:59:39.811Z,97635.00
2019-05-12T01:02:11.050Z,97622.00
2019-05-12T01:04:42.710Z,97630.00
2019-05-12T01:07:14.302Z,97636.00
2019-05-12T01:09:45.816Z,97646.00
2019-05-12T01:12:18.105Z,97648.00
2019-05-12T01:14:49.522Z,97659.00
2019-05-12T01:17:21.118Z,97646.00
2019-05-12T01:19:52.660Z,97656.00
2019-05-12T01:22:23.755Z,97658.00
2019-05-12T01:24:54.940Z,97648.00
2019-05-12T01:27:28.628Z,97656.00
2019-05-12T01:29:59.191Z,97654.00
2019-05-12T01:32:39.237Z,97663.00
2019-05-12T01:35:12.599Z,97664.00
2019-05-12T01:37:43.895Z,97682.00
2019-05-12T01:40:18.897Z,97685.00
2019-05-12T01:42:50.057Z,97681.00
2019-05-12T01:45:21.335Z,97693.00
2019-05-12T01:47:53.065Z,97702.00
2019-05-12T01:50:24.610Z,97706.00
2019-05-12T01:52:58.399Z,97718.00
2019-05-12T01:55:29.360Z,97720.00
2019-05-12T01:58:00.600Z,97738.00
2019-05-12T02:00:32.829Z,97739.00
2019-05-12T02:03:04.066Z,97765.00
2019-05-12T02:05:38.096Z,97749.00
2019-05-12T02:08:15.105Z,97744.00
2019-05-12T02:10:48.102Z,97749.00
2019-05-12T02:13:19.331Z,97761.00
2019-05-12T02:15:50.668Z,97758.00
2019-05-12T02:18:21.836Z,97762.00
2019-05-12T02:20:52.897Z,97761.00
2019-05-12T02:23:23.990Z,97762.00
2019-05-12T02:25:55.121Z,97769.00
2019-05-12T02:28:28.624Z,97768.00
2019-05-12T02:30:59.382Z,97770.00
2019-05-12T02:33:30.728Z,97770.00
2019-05-12T02:36:04.743Z,97769.00
2019-05-12T02:38:34.835Z,97770.00
2019-05-12T02:41:06.320Z,97769.00
2019-05-12T02:43:38.069Z,97777.00
2019-05-12T02:46:09.152Z,97774.00
2019-05-12T02:48:40.619Z,97784.00
2019-05-12T02:51:15.572Z,97787.00
2019-05-12T02:53:47.382Z,97796.00
2019-05-12T02:56:20.962Z,97801.00
2019-05-12T02:58:54.359Z,97804.00
2019-05-12T03:01:28.606Z,97804.00
2019-05-12T03:04:05.670Z,97814.00
2019-05-12T03:06:38.108Z,97811.00
2019-05-12T03:09:09.774Z,97823.00
2019-05-12T03:11:44.916Z,97830.00
2019-05-12T03:14:16.156Z,97825.00
2019-05-12T03:16:47.754Z,97826.00
2019-05-12T03:19:19.096Z,97827.00
2019-05-12T03:21:50.495Z,97828.00
2019-05-12T03:24:24.926Z,97828.00
2019-05-12T03:26:55.664Z,97836.00
2019-05-12T03:29:26.739Z,97844.00
2019-05-12T03:31:57.945Z,97854.00
2019-05-12T03:34:29.915Z,97854.00
2019-05-12T03:37:07.093Z,97860.00
2019-05-12T03:39:34.481Z,97858.00
2019-05-12T03:42:05.997Z,97856.00
2019-05-12T03:44:37.169Z,97872.00
2019-05-12T03:47:08.428Z,97878.00
2019-05-12T03:49:39.455Z,97887.00
2019-05-12T03:52:10.651Z,97882.00
2019-05-12T03:54:44.945Z,97893.00
2019-05-12T03:57:15.286Z,97874.00
2019-05-12T03:59:46.471Z,97891.00
2019-05-12T04:02:17.670Z,97890.00
2019-05-12T04:04:48.909Z,97891.00
2019-05-12T04:07:20.122Z,97902.00
2019-05-12T04:09:53.933Z,97900.00
2019-05-12T04:12:25.629Z,97894.00
2019-05-12T04:14:57.272Z,97896.00
2019-05-12T04:17:28.753Z,97903.00
2019-05-12T04:20:00.347Z,97906.00
2019-05-12T04:22:31.437Z,97922.00
2019-05-12T04:25:05.767Z,97916.00
2019-05-12T04:27:35.775Z,97920.00
2019-05-12T04:30:07.907Z,97940.00
2019-05-12T04:32:39.278Z,97940.00
2019-05-12T04:35:10.953Z,97940.00
2019-05-12T04:37:44.948Z,97945.00
2019-05-12T04:40:15.555Z,97962.00
2019-05-12T04:42:46.681Z,97952.00
2019-05-12T04:45:17.972Z,97974.00
2019-05-12T04:47:49.095Z,97967.00
2019-05-12T04:50:20.332Z,97982.00
2019-05-12T04:52:54.895Z,97981.00
2019-05-12T04:55:25.924Z,97996.00
2019-05-12T04:57:57.152Z,97997.00
2019-05-12T05:00:29.071Z,97991.00
2019-05-12T05:03:00.904Z,98003.00
2019-05-12T05:05:35.339Z,98010.00
2019-05-12T05:08:05.642Z,98013.00
2019-05-12T05:10:36.993Z,98023.00
2019-05-12T05:13:08.541Z,98030.00
2019-05-12T05:15:39.827Z,98038.00
2019-05-12T05:18:12.993Z,98049.00
2019-05-12T05:20:44.223Z,98041.00
2019-05-12T05:23:15.780Z,98054.00
2019-05-12T05:25:46.836Z,98055.00
2019-05-12T05:28:18.371Z,98065.00
2019-05-12T05:30:49.620Z,98062.00
2019-05-12T05:33:23.851Z,98075.00
2019-05-12T05:35:54.841Z,98080.00
2019-05-12T05:38:26.041Z,98073.00
2019-05-12T05:40:59.726Z,98079.00
2019-05-12T05:43:30.346Z,98081.00
2019-05-12T05:46:07.637Z,98086.00
2019-05-12T05:48:35.410Z,98081.00
2019-05-12T05:51:09.043Z,98088.00
2019-05-12T05:53:39.752Z,98089.00
2019-05-12T05:56:11.578Z,98078.00
2019-05-12T05:58:47.180Z,98075.00
2019-05-12T06:01:16.387Z,98090.00
2019-05-12T06:03:47.915Z,98087.00
2019-05-12T06:06:19.417Z,98094.00
2019-05-12T06:09:00.382Z,98091.00
2019-05-12T06:11:31.598Z,98102.00
2019-05-12T06:14:11.083Z,98103.00
2019-05-12T06:16:35.734Z,98111.00
2019-05-12T06:19:07.236Z,98108.00
2019-05-12T06:21:38.599Z,98102.00
2019-05-12T06:24:15.795Z,98114.00
2019-05-12T06:26:56.708Z,98127.00
2019-05-12T06:29:20.670Z,98127.00
2019-05-12T06:31:50.451Z,98094.00
2019-05-12T06:34:23.731Z,98121.00
2019-05-12T06:36:57.329Z,98129.00
2019-05-12T06:39:27.719Z,98123.00
2019-05-12T06:42:12.354Z,98130.00
2019-05-12T06:44:35.244Z,98133.00
2019-05-12T06:47:08.287Z,98139.00
2019-05-12T06:49:39.327Z,98156.00
2019-05-12T06:52:10.488Z,98142.00
2019-05-12T06:54:50.781Z,98146.00
2019-05-12T06:57:22.104Z,98157.00
2019-05-12T06:59:51.165Z,98165.00
2019-05-12T07:02:21.172Z,98153.00
2019-05-12T07:04:57.314Z,98152.00
2019-05-12T07:07:27.607Z,98163.00
2019-05-12T07:10:10.607Z,98172.00
2019-05-12T07:12:36.657Z,98166.00
2019-05-12T07:15:05.537Z,98175.00
2019-05-12T07:17:49.816Z,98175.00
2019-05-12T07:20:23.887Z,98175.00
2019-05-12T07:22:54.797Z,98203.00
2019-05-12T07:25:31.126Z,98206.00
2019-05-12T07:28:01.528Z,98193.00
2019-05-12T07:30:35.180Z,98202.00
2019-05-12T07:33:07.115Z,98214.00
2019-05-12T07:35:40.394Z,98215.00
2019-05-12T07:38:21.127Z,98213.00
2019-05-12T07:40:50.761Z,98219.00
2019-05-12T07:43:24.317Z,98220.00
2019-05-12T07:46:02.280Z,98232.00
2019-05-12T07:48:30.400Z,98230.00
2019-05-12T07:51:01.583Z,98237.00
2019-05-12T07:53:33.856Z,98256.00
2019-05-12T07:56:05.254Z,98233.00
2019-05-12T07:58:40.929Z,98247.00
2019-05-12T08:01:10.162Z,98237.00
2019-05-12T08:03:43.642Z,98246.00
2019-05-12T08:06:15.011Z,98242.00
2019-05-12T08:08:50.919Z,98252.00
2019-05-12T08:11:19.184Z,98275.00
2019-05-12T08:13:50.374Z,98237.00
2019-05-12T08:16:25.633Z,98251.00
2019-05-12T08:18:54.918Z,98256.00
2019-05-12T08:21:26.175Z,98257.00
2019-05-12T08:23:57.341Z,98258.00
2019-05-12T08:26:28.607Z,98253.00
2019-05-12T08:29:01.156Z,98258.00
2019-05-12T08:31:40.153Z,98258.00
2019-05-12T08:34:05.730Z,98259.00
2019-05-12T08:36:36.854Z,98264.00
2019-05-12T08:39:11.777Z,98272.00
2019-05-12T08:41:44.433Z,98260.00
2019-05-12T08:44:17.470Z,98273.00
2019-05-12T08:46:51.945Z,98290.00
2019-05-12T08:49:23.462Z,98286.00
2019-05-12T08:51:55.800Z,98283.00
2019-05-12T08:54:27.405Z,98289.00
2019-05-12T08:57:01.092Z,98292.00
2019-05-12T08:59:31.443Z,98289.00
2019-05-12T09:02:07.297Z,98292.00
2019-05-12T09:04:35.556Z,98303.00
2019-05-12T09:07:07.017Z,98304.00
2019-05-12T09:09:38.290Z,98312.00
2019-05-12T09:12:09.629Z,98315.00
2019-05-12T09:14:45.458Z,98305.00
2019-05-12T09:17:13.925Z,98337.00
2019-05-12T09:19:44.884Z,98323.00
2019-05-12T09:22:20.711Z,98323.00
2019-05-12T09:24:49.477Z,98326.00
2019-05-12T09:27:20.969Z,98334.00
2019-05-12T09:29:54.000Z,98334.00
2019-05-12T09:32:24.801Z,98337.00
2019-05-12T09:34:58.159Z,98349.00
2019-05-12T09:37:30.980Z,98342.00
2019-05-12T09:40:04.636Z,98356.00
2019-05-12T09:42:36.322Z,98351.00
2019-05-12T09:45:10.444Z,98354.00
2019-05-12T09:47:43.478Z,98365.00
2019-05-12T09:50:19.965Z,98357.00
2019-05-12T09:52:52.495Z,98364.00
2019-05-12T09:55:22.818Z,98361.00
2019-05-12T09:57:54.467Z,98329.00
2019-05-12T10:00:30.365Z,98358.00
2019-05-12T10:03:00.662Z,98356.00
2019-05-12T10:05:37.687Z,98352.00
2019-05-12T10:08:05.652Z,98362.00
2019-05-12T10:10:40.200Z,98362.00
2019-05-12T10:13:10.647Z,98373.00
2019-05-12T10:15:42.012Z,98363.00
2019-05-12T10:18:14.305Z,98362.00
2019-05-12T10:20:45.711Z,98376.00
2019-05-12T10:23:21.554Z,98369.00
2019-05-12T10:25:53.806Z,98384.00
2019-05-12T10:28:25.289Z,98370.00
2019-05-12T10:30:57.079Z,98378.00
2019-05-12T10:33:28.306Z,98367.00
2019-05-12T10:36:05.291Z,98373.00
2019-05-12T10:38:34.393Z,98382.00
2019-05-12T10:41:07.820Z,98380.00
2019-05-12T10:43:39.396Z,98389.00
2019-05-12T10:46:13.066Z,98395.00
2019-05-12T10:48:44.647Z,98389.00
2019-05-12T10:51:15.851Z,98387.00
2019-05-12T10:53:48.776Z,98386.00
2019-05-12T10:56:20.881Z,98396.00
2019-05-12T10:58:53.523Z,98384.00
2019-05-12T11:01:25.068Z,98388.00
2019-05-12T11:03:56.278Z,98399.00
2019-05-12T11:06:27.764Z,98400.00
2019-05-12T11:08:58.820Z,98415.00
2019-05-12T11:11:32.928Z,98408.00
2019-05-12T11:14:03.999Z,98403.00
2019-05-12T11:16:36.600Z,98414.00
2019-05-12T11:19:10.473Z,98417.00
2019-05-12T11:21:41.195Z,98417.00
2019-05-12T11:24:13.838Z,98433.00
2019-05-12T11:26:45.205Z,98432.00
2019-05-12T11:29:16.406Z,98432.00
2019-05-12T11:31:47.997Z,98449.00
2019-05-12T11:34:19.268Z,98435.00
2019-05-12T11:36:50.477Z,98441.00
2019-05-12T11:39:23.611Z,98438.00
2019-05-12T11:41:55.446Z,98446.00
2019-05-12T11:44:26.860Z,98448.00
2019-05-12T11:46:58.083Z,98447.00
2019-05-12T11:49:29.690Z,98457.00
2019-05-12T11:52:07.340Z,98461.00
2019-05-12T11:54:34.520Z,98462.00
2019-05-12T11:57:05.758Z,98457.00
2019-05-12T11:59:36.959Z,98462.00
2019-05-12T12:02:08.249Z,98466.00
2019-05-12T12:04:48.410Z,98464.00
2019-05-12T12:07:19.633Z,98482.00
2019-05-12T12:09:56.242Z,98472.00
2019-05-12T12:12:24.278Z,98484.00
2019-05-12T12:14:55.398Z,98483.00
2019-05-12T12:17:31.224Z,98480.00
2019-05-12T12:20:00.093Z,98477.00
2019-05-12T12:22:34.470Z,98477.00
2019-05-12T12:25:10.745Z,98486.00
2019-05-12T12:27:38.684Z,98488.00
2019-05-12T12:30:16.793Z,98491.00
2019-05-12T12:32:44.381Z,98485.00
2019-05-12T12:35:15.714Z,98497.00
2019-05-12T12:37:46.989Z,98493.00
2019-05-12T12:40:18.278Z,98501.00
2019-05-12T12:42:49.621Z,98504.00
2019-05-12T12:45:43.412Z,98499.00
2019-05-12T12:48:19.427Z,98496.00
2019-05-12T12:50:49.409Z,98501.00
2019-05-12T12:53:20.742Z,98506.00
2019-05-12T12:55:53.785Z,98493.00
2019-05-12T12:58:26.969Z,98494.00
2019-05-12T13:00:58.056Z,98507.00
2019-05-12T13:03:30.015Z,98503.00
2019-05-12T13:06:01.475Z,98508.00
2019-05-12T13:08:34.238Z,98508.00
2019-05-12T13:11:05.890Z,98512.00
2019-05-12T13:13:37.238Z,98505.00
2019-05-12T13:16:08.453Z,98514.00
2019-05-12T13:18:40.001Z,98509.00
2019-05-12T13:21:11.283Z,98518.00
2019-05-12T13:23:45.246Z,98528.00
2019-05-12T13:26:15.732Z,98526.00
2019-05-12T13:28:53.436Z,98536.00
2019-05-12T13:31:20.277Z,98538.00
2019-05-12T13:33:54.920Z,98528.00
2019-05-12T13:36:29.582Z,98534.00
2019-05-12T13:38:58.046Z,98528.00
2019-05-12T13:41:29.645Z,98538.00
2019-05-12T13:44:01.164Z,98543.00
2019-05-12T13:46:34.448Z,98531.00
2019-05-12T13:49:05.762Z,98542.00
2019-05-12T13:51:37.056Z,98546.00
2019-05-12T13:54:08.447Z,98550.00
2019-05-12T13:56:39.689Z,98551.00
2019-05-12T13:59:12.244Z,98536.00
2019-05-12T14:01:45.815Z,98535.00
2019-05-12T14:04:16.878Z,98548.00
2019-05-12T14:06:48.553Z,98550.00
2019-05-12T14:09:19.855Z,98553.00
2019-05-12T14:11:51.056Z,98567.00
2019-05-12T14:14:23.780Z,98556.00
2019-05-12T14:16:59.433Z,98575.00
2019-05-12T14:19:30.381Z,98553.00
2019-05-12T14:22:03.560Z,98553.00
2019-05-12T14:24:41.874Z,98549.00
2019-05-12T14:27:07.551Z,98555.00
2019-05-12T14:29:39.277Z,98558.00
2019-05-12T14:32:12.239Z,98551.00
2019-05-12T14:34:43.491Z,98575.00
2019-05-12T14:37:17.128Z,98564.00
2019-05-12T14:39:50.237Z,98563.00
2019-05-12T14:42:26.131Z,98548.00
2019-05-12T14:44:54.149Z,98569.00
2019-05-12T14:47:30.098Z,98570.00
2019-05-12T14:49:59.069Z,98572.00
2019-05-12T14:52:30.377Z,98569.00
2019-05-12T14:55:03.391Z,98568.00
2019-05-12T14:57:39.238Z,98574.00
2019-05-12T15:00:11.133Z,98575.00
2019-05-12T15:02:43.809Z,98578.00
2019-05-12T15:05:16.473Z,98570.00
2019-05-12T15:07:54.357Z,98589.00
2019-05-12T15:10:23.338Z,98569.00
2019-05-12T15:12:54.383Z,98577.00
2019-05-12T15:15:25.685Z,98579.00
2019-05-12T15:18:03.561Z,98577.00
2019-05-12T15:20:30.225Z,98574.00
2019-05-12T15:23:03.724Z,98582.00
2019-05-12T15:25:35.328Z,98588.00
2019-05-12T15:28:07.570Z,98591.00
2019-05-12T15:30:38.794Z,98604.00
2019-05-12T15:33:10.421Z,98586.00
2019-05-12T15:35:43.978Z,98582.00
2019-05-12T15:38:16.636Z,98593.00
2019-05-12T15:40:48.555Z,98601.00
2019-05-12T15:43:20.107Z,98599.00
2019-05-12T15:45:55.305Z,98597.00
2019-05-12T15:48:26.163Z,98599.00
2019-05-12T15:50:59.352Z,98605.00
2019-05-12T15:53:30.115Z,98605.00
2019-05-12T15:56:05.779Z,98597.00
2019-05-12T15:58:34.326Z,98618.00
2019-05-12T16:01:06.119Z,98614.00
2019-05-12T16:03:37.621Z,98622.00
2019-05-12T16:06:11.771Z,98614.00
2019-05-12T16:08:42.689Z,98618.00
2019-05-12T16:11:14.150Z,98619.00
2019-05-12T16:13:53.904Z,98613.00
2019-05-12T16:16:18.334Z,98623.00
2019-05-12T16:18:50.777Z,98625.00
2019-05-12T16:21:22.340Z,98621.00
2019-05-12T16:23:56.743Z,98614.00
2019-05-12T16:26:26.915Z,98616.00
2019-05-12T16:29:05.347Z,98609.00
2019-05-12T16:31:31.137Z,98626.00
2019-05-12T16:34:05.865Z,98633.00
2019-05-12T16:36:35.918Z,98626.00
2019-05-12T16:39:08.881Z,98618.00
2019-05-12T16:41:40.802Z,98623.00
2019-05-12T16:44:20.774Z,98625.00
2019-05-12T16:46:45.216Z,98622.00
2019-05-12T16:49:16.496Z,98630.00
2019-05-12T16:51:48.699Z,98631.00
2019-05-12T16:54:24.007Z,98625.00
2019-05-12T16:56:54.625Z,98630.00
2019-05-12T16:59:26.146Z,98648.00
2019-05-12T17:01:59.431Z,98644.00
2019-05-12T17:04:30.530Z,98637.00
2019-05-12T17:07:01.917Z,98645.00
2019-05-12T17:09:33.562Z,98646.00
2019-05-12T17:12:05.230Z,98643.00
2019-05-12T17:14:48.058Z,98646.00
2019-05-12T17:17:11.026Z,98648.00
2019-05-12T17:19:43.425Z,98649.00
2019-05-12T17:22:17.482Z,98663.00
2019-05-12T17:24:47.868Z,98653.00
2019-05-12T17:27:24.356Z,98668.00
2019-05-12T17:29:54.061Z,98669.00
2019-05-12T17:32:25.085Z,98668.00
2019-05-12T17:34:56.744Z,98673.00
2019-05-12T17:37:31.491Z,98658.00
2019-05-12T17:40:03.724Z,98674.00
2019-05-12T17:42:35.204Z,98674.00
2019-05-12T17:45:09.409Z,98671.00
2019-05-12T17:47:41.149Z,98676.00
2019-05-12T17:50:13.687Z,98677.00
2019-05-12T17:52:50.281Z,98682.00
2019-05-12T17:55:18.678Z,98688.00
2019-05-12T17:57:50.235Z,98690.00
2019-05-12T18:00:23.671Z,98691.00
2019-05-12T18:03:14.214Z,98692.00
2019-05-12T18:05:28.456Z,98707.00
2019-05-12T18:08:00.112Z,98703.00
2019-05-12T18:10:32.538Z,98704.00
2019-05-12T18:13:04.552Z,98715.00
2019-05-12T18:15:37.960Z,98700.00
2019-05-12T18:18:09.359Z,98706.00
2019-05-12T18:20:44.540Z,98709.00
2019-05-12T18:23:19.739Z,98710.00
2019-05-12T18:25:49.236Z,98709.00
2019-05-12T18:28:21.695Z,98713.00
2019-05-12T18:30:53.900Z,98718.00
2019-05-12T18:33:33.302Z,98722.00
2019-05-12T18:36:00.319Z,98732.00
2019-05-12T18:38:32.848Z,98725.00
2019-05-12T18:41:04.659Z,98722.00
2019-05-12T18:43:36.133Z,98739.00
2019-05-12T18:46:09.265Z,98733.00
2019-05-12T18:48:40.596Z,98747.00
2019-05-12T18:51:17.016Z,98739.00
2019-05-12T18:53:45.247Z,98751.00
2019-05-12T18:56:21.607Z,98743.00
2019-05-12T18:58:49.303Z,98766.00
2019-05-12T19:01:20.607Z,98757.00
2019-05-12T19:03:54.593Z,98765.00
2019-05-12T19:06:25.574Z,98791.00
2019-05-12T19:08:56.774Z,98764.00
2019-05-12T19:11:37.395Z,98766.00
2019-05-12T19:14:01.021Z,98766.00
2019-05-12T19:16:32.710Z,98765.00
2019-05-12T19:19:04.501Z,98760.00
2019-05-12T19:21:36.194Z,98763.00
2019-05-12T19:24:08.847Z,98768.00
2019-05-12T19:26:40.472Z,98772.00
2019-05-12T19:29:14.123Z,98776.00
2019-05-12T19:31:52.320Z,98793.00
2019-05-12T19:34:22.885Z,98792.00
2019-05-12T19:36:51.890Z,98785.00
2019-05-12T19:39:25.328Z,98801.00
2019-05-12T19:41:57.863Z,98803.00
2019-05-12T19:44:30.811Z,98805.00
2019-05-12T19:47:03.161Z,98808.00
2019-05-12T19:49:46.659Z,98811.00
2019-05-12T19:52:07.985Z,98811.00
2019-05-12T19:54:39.296Z,98812.00
2019-05-12T19:57:15.155Z,98823.00
2019-05-12T19:59:50.535Z,98816.00
2019-05-12T20:02:17.037Z,98811.00
2019-05-12T20:04:52.003Z,98831.00
2019-05-12T20:07:23.370Z,98819.00
2019-05-12T20:10:00.212Z,98827.00
2019-05-12T20:12:27.836Z,98821.00
2019-05-12T20:14:59.353Z,98829.00
2019-05-12T20:17:30.840Z,98826.00
2019-05-12T20:20:04.482Z,98839.00
2019-05-12T20:22:36.298Z,98841.00
2019-05-12T20:25:08.091Z,98839.00
2019-05-12T20:27:39.667Z,98847.00
2019-05-12T20:30:16.872Z,98843.00
2019-05-12T20:32:44.414Z,98835.00
2019-05-12T20:35:15.706Z,98835.00
2019-05-12T20:37:52.934Z,98842.00
2019-05-12T20:40:19.902Z,98839.00
2019-05-12T20:43:07.253Z,98846.00
2019-05-12T20:45:25.915Z,98851.00
2019-05-12T20:47:56.782Z,98856.00
2019-05-12T20:50:33.045Z,98858.00
2019-05-12T20:53:01.110Z,98854.00
2019-05-12T20:55:39.445Z,98863.00
2019-05-12T20:58:05.244Z,98862.00
2019-05-12T21:00:38.898Z,98854.00
2019-05-12T21:03:09.791Z,98862.00
2019-05-12T21:05:40.972Z,98860.00
2019-05-12T21:08:15.115Z,98862.00
2019-05-12T21:10:45.076Z,98858.00
2019-05-12T21:13:20.419Z,98862.00
2019-05-12T21:15:53.748Z,98867.00
2019-05-12T21:18:24.041Z,98879.00
2019-05-12T21:20:55.596Z,98874.00
2019-05-12T21:23:26.982Z,98866.00
2019-05-12T21:25:58.597Z,98870.00
2019-05-12T21:28:29.810Z,98878.00
2019-05-12T21:31:03.499Z,98880.00
2019-05-12T21:33:39.558Z,98872.00
2019-05-12T21:36:07.287Z,98877.00
2019-05-12T21:38:38.841Z,98871.00
2019-05-12T21:41:10.241Z,98869.00
2019-05-12T21:43:43.758Z,98875.00
2019-05-12T21:46:15.702Z,98878.00
2019-05-12T21:48:47.336Z,98880.00
2019-05-12T21:51:20.126Z,98884.00
2019-05-12T21:53:56.215Z,98882.00
2019-05-12T21:56:24.551Z,98878.00
2019-05-12T21:58:58.150Z,98884.00
2019-05-12T22:01:28.808Z,98879.00
2019-05-12T22:04:02.551Z,98883.00
2019-05-12T22:06:34.151Z,98891.00
2019-05-12T22:09:07.332Z,98885.00
2019-05-12T22:11:42.291Z,98894.00
2019-05-12T22:14:13.684Z,98893.00
2019-05-12T22:16:47.726Z,98890.00
2019-05-12T22:19:19.234Z,98888.00
2019-05-12T22:21:50.558Z,98896.00
2019-05-12T22:24:25.203Z,98892.00
2019-05-12T22:26:55.331Z,98892.00
2019-05-12T22:29:31.064Z,98902.00
2019-05-12T22:32:00.052Z,98901.00
2019-05-12T22:34:40.310Z,98898.00
2019-05-12T22:37:04.238Z,98901.00
2019-05-12T22:39:35.543Z,98902.00
2019-05-12T22:42:11.674Z,98915.00
2019-05-12T22:44:39.720Z,98908.00
2019-05-12T22:47:13.645Z,98910.00
2019-05-12T22:49:44.401Z,98899.00
2019-05-12T22:52:17.407Z,98911.00
2019-05-12T22:54:51.038Z,98910.00
2019-05-12T22:57:24.234Z,98914.00
2019-05-12T22:59:55.664Z,98919.00
2019-05-12T23:02:29.954Z,98925.00
2019-05-12T23:05:00.037Z,98923.00
2019-05-12T23:07:33.054Z,98926.00
2019-05-12T23:10:06.999Z,98927.00
2019-05-12T23:12:37.444Z,98921.00
2019-05-12T23:15:09.689Z,98927.00
2019-05-12T23:17:45.268Z,98928.00
2019-05-12T23:20:14.746Z,98934.00
2019-05-12T23:22:45.993Z,98933.00
2019-05-12T23:25:21.353Z,98943.00
2019-05-12T23:27:50.362Z,98938.00
2019-05-12T23:30:24.029Z,98931.00
2019-05-12T23:32:54.780Z,98934.00
2019-05-12T23:35:28.282Z,98931.00
2019-05-12T23:37:58.777Z,98924.00
2019-05-12T23:40:30.119Z,98930.00
2019-05-12T23:43:03.824Z,98934.00
2019-05-12T23:45:34.294Z,98933.00
2019-05-12T23:48:05.467Z,98930.00
2019-05-12T23:50:36.667Z,98934.00
2019-05-12T23:53:07.807Z,98936.00
2019-05-12T23:55:39.107Z,98934.00
2019-05-12T23:58:10.312Z,98930.00
